createdAt,value
2023-03-16T00:00:23.327Z,101647.81
2023-03-16T00:02:50.825Z,101643.88
2023-03-16T00:05:18.306Z,101652.00
2023-03-16T00:07:47.063Z,101657.38
2023-03-16T00:10:14.712Z,101663.91
2023-03-16T00:12:43.583Z,101671.34
2023-03-16T00:15:11.550Z,101672.88
2023-03-16T00:17:39.138Z,101666.63
2023-03-16T00:20:07.713Z,101654.09
2023-03-16T00:22:35.225Z,101668.16
2023-03-16T00:25:04.598Z,101668.31
2023-03-16T00:27:32.113Z,101669.00
2023-03-16T00:29:59.517Z,101671.78
2023-03-16T00:32:29.529Z,101667.41
2023-03-16T00:34:57.414Z,101679.34
2023-03-16T00:37:26.856Z,101674.84
2023-03-16T00:39:56.218Z,101673.38
2023-03-16T00:42:27.932Z,101679.44
2023-03-16T00:44:57.466Z,101687.28
2023-03-16T00:47:25.996Z,101681.94
2023-03-16T00:49:53.412Z,101676.94
2023-03-16T00:52:22.200Z,101689.66
2023-03-16T00:54:50.218Z,101681.00
2023-03-16T00:57:19.674Z,101683.31
2023-03-16T00:59:49.418Z,101681.22
2023-03-16T01:02:19.887Z,101681.81
2023-03-16T01:04:47.358Z,101685.38
2023-03-16T01:07:15.612Z,101677.97
2023-03-16T01:09:43.780Z,101689.84
2023-03-16T01:12:13.795Z,101685.63
2023-03-16T01:14:41.833Z,101693.69
2023-03-16T01:17:11.094Z,101699.88
2023-03-16T01:19:38.859Z,101696.81
2023-03-16T01:22:07.081Z,101688.97
2023-03-16T01:24:35.651Z,101684.09
2023-03-16T01:27:04.389Z,101698.78
2023-03-16T01:29:33.000Z,101682.66
2023-03-16T01:32:00.649Z,101680.47
2023-03-16T01:34:29.385Z,101688.56
2023-03-16T01:36:57.203Z,101681.69
2023-03-16T01:39:24.680Z,101689.91
2023-03-16T01:41:52.427Z,101682.41
2023-03-16T01:44:24.269Z,101679.66
2023-03-16T01:46:51.862Z,101688.34
2023-03-16T01:49:23.753Z,101681.34
2023-03-16T01:51:56.313Z,101686.59
2023-03-16T01:54:29.032Z,101677.91
2023-03-16T01:57:04.730Z,101687.59
2023-03-16T01:59:36.697Z,101685.47
2023-03-16T02:02:04.703Z,101681.88
2023-03-16T02:04:46.257Z,101676.44
2023-03-16T02:07:17.954Z,101687.13
2023-03-16T02:09:47.862Z,101690.84
2023-03-16T02:12:18.778Z,101678.94
2023-03-16T02:14:46.602Z,101682.31
2023-03-16T02:17:16.048Z,101675.47
2023-03-16T02:19:52.594Z,101674.25
2023-03-16T02:22:24.909Z,101678.38
2023-03-16T02:24:53.105Z,101672.81
2023-03-16T02:27:28.307Z,101672.63
2023-03-16T02:30:03.199Z,101672.75
2023-03-16T02:32:32.576Z,101670.88
2023-03-16T02:35:02.037Z,101675.47
2023-03-16T02:37:30.088Z,101681.75
2023-03-16T02:39:57.506Z,101677.31
2023-03-16T02:42:27.602Z,101674.53
2023-03-16T02:44:59.017Z,101674.25
2023-03-16T02:47:33.255Z,101671.75
2023-03-16T02:50:00.730Z,101677.88
2023-03-16T02:52:28.188Z,101679.41
2023-03-16T02:54:55.591Z,101685.22
2023-03-16T02:57:23.005Z,101679.50
2023-03-16T02:59:50.445Z,101678.50
2023-03-16T03:02:19.215Z,101688.25
2023-03-16T03:04:47.003Z,101684.59
2023-03-16T03:07:15.739Z,101693.69
2023-03-16T03:09:43.417Z,101692.78
2023-03-16T03:12:13.047Z,101699.75
2023-03-16T03:14:40.953Z,101701.47
2023-03-16T03:17:10.315Z,101699.56
2023-03-16T03:19:39.100Z,101712.28
2023-03-16T03:22:07.200Z,101706.66
2023-03-16T03:24:35.414Z,101706.56
2023-03-16T03:27:05.741Z,101712.00
2023-03-16T03:29:35.163Z,101718.31
2023-03-16T03:32:02.934Z,101719.22
2023-03-16T03:34:30.452Z,101718.38
2023-03-16T03:36:59.868Z,101724.75
2023-03-16T03:39:27.489Z,101717.44
2023-03-16T03:41:55.312Z,101720.13
2023-03-16T03:44:23.209Z,101719.16
2023-03-16T03:46:51.596Z,101723.00
2023-03-16T03:49:19.078Z,101718.44
2023-03-16T03:51:46.984Z,101722.84
2023-03-16T03:54:15.708Z,101718.06
2023-03-16T03:56:43.189Z,101721.22
2023-03-16T03:59:10.867Z,101720.34
2023-03-16T04:01:38.354Z,101723.91
2023-03-16T04:04:05.754Z,101725.53
2023-03-16T04:06:33.199Z,101718.50
2023-03-16T04:09:00.997Z,101724.75
2023-03-16T04:11:29.774Z,101716.34
2023-03-16T04:13:57.198Z,101716.13
2023-03-16T04:16:26.959Z,101717.72
2023-03-16T04:18:54.497Z,101718.66
2023-03-16T04:21:23.252Z,101723.09
2023-03-16T04:23:54.205Z,101721.38
2023-03-16T04:26:22.528Z,101716.09
2023-03-16T04:28:52.567Z,101713.34
2023-03-16T04:31:20.197Z,101719.31
2023-03-16T04:33:47.814Z,101721.34
2023-03-16T04:36:15.582Z,101721.13
2023-03-16T04:38:43.040Z,101716.72
2023-03-16T04:41:11.351Z,101722.28
2023-03-16T04:43:38.777Z,101729.63
2023-03-16T04:46:08.061Z,101729.16
2023-03-16T04:48:35.841Z,101726.69
2023-03-16T04:51:03.876Z,101735.03
2023-03-16T04:53:32.472Z,101728.38
2023-03-16T04:56:00.251Z,101725.38
2023-03-16T04:58:27.985Z,101731.34
2023-03-16T05:00:56.543Z,101722.75
2023-03-16T05:03:25.502Z,101739.25
2023-03-16T05:05:53.014Z,101736.78
2023-03-16T05:08:20.481Z,101747.34
2023-03-16T05:10:48.496Z,101736.78
2023-03-16T05:13:15.941Z,101742.97
2023-03-16T05:15:43.651Z,101742.22
2023-03-16T05:18:11.100Z,101737.19
2023-03-16T05:20:39.923Z,101738.06
2023-03-16T05:23:08.267Z,101742.72
2023-03-16T05:25:35.798Z,101741.72
2023-03-16T05:28:03.197Z,101742.56
2023-03-16T05:30:31.164Z,101743.78
2023-03-16T05:32:58.750Z,101750.19
2023-03-16T05:35:26.439Z,101753.63
2023-03-16T05:37:55.247Z,101749.41
2023-03-16T05:40:23.234Z,101747.22
2023-03-16T05:42:55.896Z,101750.50
2023-03-16T05:45:23.833Z,101751.59
2023-03-16T05:47:51.779Z,101756.28
2023-03-16T05:50:19.433Z,101759.25
2023-03-16T05:52:48.280Z,101761.25
2023-03-16T05:55:19.056Z,101766.59
2023-03-16T05:57:46.495Z,101778.25
2023-03-16T06:00:16.709Z,101772.56
2023-03-16T06:02:46.848Z,101774.16
2023-03-16T06:05:14.441Z,101772.56
2023-03-16T06:07:42.557Z,101768.09
2023-03-16T06:10:11.445Z,101773.19
2023-03-16T06:12:41.196Z,101774.31
2023-03-16T06:15:11.287Z,101770.34
2023-03-16T06:17:40.133Z,101770.19
2023-03-16T06:20:12.921Z,101767.22
2023-03-16T06:22:41.321Z,101774.56
2023-03-16T06:25:10.501Z,101782.88
2023-03-16T06:27:37.935Z,101784.06
2023-03-16T06:30:08.947Z,101776.72
2023-03-16T06:32:37.956Z,101779.25
2023-03-16T06:35:06.553Z,101791.66
2023-03-16T06:37:34.205Z,101786.69
2023-03-16T06:40:01.869Z,101785.00
2023-03-16T06:42:29.299Z,101785.81
2023-03-16T06:44:56.768Z,101786.28
2023-03-16T06:47:26.707Z,101790.75
2023-03-16T06:49:55.266Z,101795.13
2023-03-16T06:52:23.148Z,101800.91
2023-03-16T06:54:51.026Z,101810.47
2023-03-16T06:57:18.573Z,101807.94
2023-03-16T06:59:46.019Z,101806.50
2023-03-16T07:02:14.945Z,101806.50
2023-03-16T07:04:44.263Z,101808.56
2023-03-16T07:07:12.216Z,101811.09
2023-03-16T07:09:41.765Z,101815.59
2023-03-16T07:12:10.338Z,101821.50
2023-03-16T07:14:38.054Z,101820.28
2023-03-16T07:17:06.495Z,101825.25
2023-03-16T07:19:33.909Z,101824.59
2023-03-16T07:22:05.013Z,101821.06
2023-03-16T07:24:32.731Z,101823.34
2023-03-16T07:27:00.201Z,101830.06
2023-03-16T07:29:27.585Z,101830.88
2023-03-16T07:31:55.182Z,101826.25
2023-03-16T07:34:22.570Z,101832.69
2023-03-16T07:36:52.721Z,101838.03
2023-03-16T07:39:21.524Z,101846.47
2023-03-16T07:41:49.014Z,101842.47
2023-03-16T07:44:16.576Z,101836.84
2023-03-16T07:46:44.011Z,101835.16
2023-03-16T07:49:12.227Z,101836.97
2023-03-16T07:51:40.226Z,101836.63
2023-03-16T07:54:07.648Z,101840.06
2023-03-16T07:56:48.469Z,101839.34
2023-03-16T07:59:16.557Z,101842.81
2023-03-16T08:01:44.698Z,101845.47
2023-03-16T08:04:13.168Z,101838.06
2023-03-16T08:06:40.576Z,101844.88
2023-03-16T08:09:08.142Z,101846.75
2023-03-16T08:11:36.935Z,101840.78
2023-03-16T08:14:05.419Z,101846.34
2023-03-16T08:16:32.972Z,101831.69
2023-03-16T08:19:01.266Z,101844.53
2023-03-16T08:21:30.308Z,101836.22
2023-03-16T08:23:57.769Z,101836.22
2023-03-16T08:26:26.515Z,101835.81
2023-03-16T08:28:55.450Z,101837.84
2023-03-16T08:31:23.561Z,101842.81
2023-03-16T08:33:51.762Z,101851.25
2023-03-16T08:36:20.989Z,101847.88
2023-03-16T08:39:03.755Z,101847.94
2023-03-16T08:41:34.705Z,101848.13
2023-03-16T08:44:03.675Z,101848.69
2023-03-16T08:46:31.640Z,101849.56
2023-03-16T08:48:59.122Z,101845.41
2023-03-16T08:51:26.690Z,101846.50
2023-03-16T08:53:54.120Z,101854.50
2023-03-16T08:56:21.596Z,101861.28
2023-03-16T08:58:50.562Z,101863.91
2023-03-16T09:01:20.449Z,101853.16
2023-03-16T09:03:48.341Z,101863.63
2023-03-16T09:06:17.632Z,101863.50
2023-03-16T09:08:46.030Z,101857.38
2023-03-16T09:11:15.594Z,101868.41
2023-03-16T09:13:44.672Z,101862.66
2023-03-16T09:16:13.792Z,101869.41
2023-03-16T09:18:43.250Z,101871.66
2023-03-16T09:21:13.163Z,101874.78
2023-03-16T09:23:42.913Z,101871.03
2023-03-16T09:26:12.508Z,101871.03
2023-03-16T09:28:42.029Z,101874.78
2023-03-16T09:31:11.655Z,101876.41
2023-03-16T09:33:39.943Z,101877.81
2023-03-16T09:36:11.459Z,101873.47
2023-03-16T09:38:39.393Z,101875.16
2023-03-16T09:41:10.636Z,101880.59
2023-03-16T09:43:49.295Z,101877.31
2023-03-16T09:46:25.850Z,101876.44
2023-03-16T09:48:55.733Z,101878.84
2023-03-16T09:51:38.014Z,101876.44
2023-03-16T09:54:15.551Z,101879.88
2023-03-16T09:56:44.624Z,101882.66
2023-03-16T09:59:14.293Z,101877.88
2023-03-16T10:01:53.650Z,101873.22
2023-03-16T10:04:39.613Z,101877.28
2023-03-16T10:07:22.108Z,101874.66
2023-03-16T10:09:57.097Z,101868.31
2023-03-16T10:12:30.795Z,101867.59
2023-03-16T10:15:05.155Z,101873.47
2023-03-16T10:17:39.894Z,101869.88
2023-03-16T10:20:12.960Z,101871.50
2023-03-16T10:22:45.623Z,101868.38
2023-03-16T10:25:20.943Z,101872.16
2023-03-16T10:27:49.141Z,101868.31
2023-03-16T10:30:24.565Z,101860.09
2023-03-16T10:32:52.619Z,101864.78
2023-03-16T10:35:32.163Z,101857.84
2023-03-16T10:38:01.130Z,101848.47
2023-03-16T10:40:33.019Z,101859.31
2023-03-16T10:43:06.770Z,101850.63
2023-03-16T10:45:36.564Z,101846.19
2023-03-16T10:48:08.860Z,101842.28
2023-03-16T10:50:36.954Z,101848.69
2023-03-16T10:53:05.706Z,101843.41
2023-03-16T10:55:43.568Z,101839.38
2023-03-16T10:58:11.095Z,101841.38
2023-03-16T11:00:43.496Z,101854.66
2023-03-16T11:03:23.049Z,101844.84
2023-03-16T11:05:58.771Z,101843.19
2023-03-16T11:08:32.345Z,101847.75
2023-03-16T11:11:03.671Z,101842.97
2023-03-16T11:13:34.866Z,101843.31
2023-03-16T11:16:06.698Z,101832.47
2023-03-16T11:18:38.595Z,101834.91
2023-03-16T11:21:12.692Z,101832.63
2023-03-16T11:23:49.696Z,101830.09
2023-03-16T11:26:24.014Z,101832.13
2023-03-16T11:28:59.244Z,101831.81
2023-03-16T11:31:43.022Z,101831.63
2023-03-16T11:34:17.830Z,101831.81
2023-03-16T11:36:50.982Z,101822.94
2023-03-16T11:39:31.709Z,101825.72
2023-03-16T11:42:15.735Z,101809.88
2023-03-16T11:44:52.522Z,101809.41
2023-03-16T11:47:37.675Z,101804.94
2023-03-16T11:50:15.634Z,101803.94
2023-03-16T11:52:50.598Z,101801.56
2023-03-16T11:55:29.109Z,101793.25
2023-03-16T11:58:12.692Z,101792.59
2023-03-16T12:00:53.382Z,101797.22
2023-03-16T12:03:34.668Z,101794.13
2023-03-16T12:06:22.099Z,101792.72
2023-03-16T12:09:13.494Z,101780.53
2023-03-16T12:11:50.375Z,101775.72
2023-03-16T12:14:24.643Z,101782.09
2023-03-16T12:16:57.477Z,101769.84
2023-03-16T12:19:31.400Z,101766.34
2023-03-16T12:22:08.781Z,101774.25
2023-03-16T12:24:42.442Z,101768.00
2023-03-16T12:27:15.981Z,101764.91
2023-03-16T12:29:56.855Z,101769.34
2023-03-16T12:32:38.048Z,101766.59
2023-03-16T12:35:20.280Z,101765.34
2023-03-16T12:37:59.885Z,101759.53
2023-03-16T12:40:39.589Z,101759.09
2023-03-16T12:43:29.042Z,101756.66
2023-03-16T12:46:04.404Z,101757.91
2023-03-16T12:48:34.885Z,101749.25
2023-03-16T12:51:04.992Z,101750.94
2023-03-16T12:53:44.735Z,101752.97
2023-03-16T12:56:15.192Z,101736.25
2023-03-16T12:58:47.775Z,101738.13
2023-03-16T13:01:18.478Z,101726.72
2023-03-16T13:03:49.776Z,101735.19
2023-03-16T13:06:23.409Z,101734.38
2023-03-16T13:08:56.703Z,101737.00
2023-03-16T13:11:24.203Z,101727.03
2023-03-16T13:14:07.208Z,101713.44
2023-03-16T13:16:37.499Z,101713.03
2023-03-16T13:19:24.463Z,101724.41
2023-03-16T13:22:04.355Z,101711.91
2023-03-16T13:24:41.328Z,101706.84
2023-03-16T13:27:22.291Z,101706.78
2023-03-16T13:29:56.579Z,101714.91
2023-03-16T13:32:28.525Z,101713.59
2023-03-16T13:34:59.162Z,101712.66
2023-03-16T13:37:29.409Z,101718.59
2023-03-16T13:39:59.736Z,101714.19
2023-03-16T13:42:31.477Z,101715.69
2023-03-16T13:45:08.891Z,101704.31
2023-03-16T13:47:36.836Z,101708.91
2023-03-16T13:50:04.521Z,101700.44
2023-03-16T13:52:34.488Z,101689.72
2023-03-16T13:55:04.215Z,101693.44
2023-03-16T13:57:36.946Z,101695.25
2023-03-16T14:00:17.934Z,101691.97
2023-03-16T14:02:47.205Z,101683.50
2023-03-16T14:05:20.385Z,101679.19
2023-03-16T14:07:50.909Z,101676.41
2023-03-16T14:10:19.714Z,101672.44
2023-03-16T14:12:54.732Z,101678.13
2023-03-16T14:15:26.574Z,101674.66
2023-03-16T14:17:54.468Z,101674.22
2023-03-16T14:20:25.427Z,101681.81
2023-03-16T14:22:53.877Z,101673.41
2023-03-16T14:25:23.690Z,101681.25
2023-03-16T14:27:59.789Z,101671.72
2023-03-16T14:30:30.346Z,101675.38
2023-03-16T14:33:00.533Z,101662.31
2023-03-16T14:35:31.179Z,101660.44
2023-03-16T14:38:19.360Z,101654.00
2023-03-16T14:40:54.479Z,101646.84
2023-03-16T14:43:27.974Z,101640.59
2023-03-16T14:45:57.354Z,101641.47
2023-03-16T14:48:25.055Z,101640.06
2023-03-16T14:50:56.191Z,101632.09
2023-03-16T14:53:24.631Z,101629.75
2023-03-16T14:55:52.154Z,101627.25
2023-03-16T14:58:19.587Z,101626.25
2023-03-16T15:00:53.277Z,101624.09
2023-03-16T15:03:32.999Z,101629.63
2023-03-16T15:06:01.345Z,101626.13
2023-03-16T15:08:32.817Z,101611.69
2023-03-16T15:11:02.797Z,101619.38
2023-03-16T15:13:52.633Z,101613.34
2023-03-16T15:16:21.870Z,101607.00
2023-03-16T15:18:51.860Z,101602.25
2023-03-16T15:21:23.322Z,101594.72
2023-03-16T15:23:51.344Z,101603.75
2023-03-16T15:26:25.248Z,101604.94
2023-03-16T15:28:52.928Z,101617.34
2023-03-16T15:31:20.747Z,101612.94
2023-03-16T15:33:48.254Z,101603.16
2023-03-16T15:36:19.271Z,101599.97
2023-03-16T15:38:48.318Z,101603.84
2023-03-16T15:41:16.104Z,101607.19
2023-03-16T15:43:44.998Z,101591.53
2023-03-16T15:46:13.113Z,101593.66
2023-03-16T15:48:40.764Z,101591.66
2023-03-16T15:51:16.285Z,101589.50
2023-03-16T15:53:49.821Z,101589.97
2023-03-16T15:56:22.035Z,101586.94
2023-03-16T15:58:49.664Z,101590.59
2023-03-16T16:01:22.931Z,101580.03
2023-03-16T16:03:53.708Z,101582.91
2023-03-16T16:06:21.274Z,101576.00
2023-03-16T16:08:50.043Z,101586.91
2023-03-16T16:11:22.324Z,101585.94
2023-03-16T16:13:50.455Z,101582.34
2023-03-16T16:16:19.768Z,101583.00
2023-03-16T16:18:48.375Z,101573.84
2023-03-16T16:21:19.137Z,101576.34
2023-03-16T16:23:47.799Z,101580.44
2023-03-16T16:26:27.927Z,101575.06
2023-03-16T16:28:59.481Z,101588.66
2023-03-16T16:31:29.680Z,101581.13
2023-03-16T16:33:58.964Z,101581.00
2023-03-16T16:36:26.400Z,101576.34
2023-03-16T16:38:56.955Z,101586.44
2023-03-16T16:41:29.170Z,101576.00
2023-03-16T16:43:57.878Z,101568.38
2023-03-16T16:46:27.408Z,101569.16
2023-03-16T16:49:00.094Z,101560.19
2023-03-16T16:51:29.836Z,101563.22
2023-03-16T16:53:59.573Z,101567.00
2023-03-16T16:56:31.832Z,101563.78
2023-03-16T16:59:02.379Z,101557.13
2023-03-16T17:01:34.522Z,101563.69
2023-03-16T17:04:03.337Z,101555.78
2023-03-16T17:06:31.387Z,101552.06
2023-03-16T17:08:58.814Z,101550.97
2023-03-16T17:11:30.758Z,101551.44
2023-03-16T17:14:00.112Z,101555.84
2023-03-16T17:16:31.392Z,101565.78
2023-03-16T17:18:59.781Z,101560.53
2023-03-16T17:21:30.977Z,101571.75
2023-03-16T17:23:58.602Z,101573.59
2023-03-16T17:26:30.072Z,101575.84
2023-03-16T17:29:00.596Z,101564.22
2023-03-16T17:31:31.059Z,101567.34
2023-03-16T17:33:59.422Z,101568.88
2023-03-16T17:36:27.522Z,101568.72
2023-03-16T17:38:56.047Z,101573.63
2023-03-16T17:41:25.562Z,101564.59
2023-03-16T17:43:56.660Z,101578.53
2023-03-16T17:46:26.296Z,101576.25
2023-03-16T17:48:55.634Z,101581.34
2023-03-16T17:51:25.548Z,101572.09
2023-03-16T17:53:53.829Z,101572.09
2023-03-16T17:56:24.245Z,101570.13
2023-03-16T17:58:57.093Z,101558.91
2023-03-16T18:01:29.172Z,101550.81
2023-03-16T18:03:57.153Z,101553.31
2023-03-16T18:06:27.364Z,101553.63
2023-03-16T18:08:54.826Z,101558.06
2023-03-16T18:11:24.045Z,101564.84
2023-03-16T18:13:53.057Z,101573.63
2023-03-16T18:16:28.212Z,101566.94
2023-03-16T18:18:59.154Z,101563.34
2023-03-16T18:21:27.222Z,101560.28
2023-03-16T18:23:55.763Z,101563.94
2023-03-16T18:26:24.600Z,101559.28
2023-03-16T18:28:53.391Z,101548.09
2023-03-16T18:31:26.268Z,101541.31
2023-03-16T18:33:56.338Z,101550.38
2023-03-16T18:36:29.887Z,101550.34
2023-03-16T18:38:59.510Z,101553.28
2023-03-16T18:41:29.237Z,101545.44
2023-03-16T18:43:58.984Z,101547.34
2023-03-16T18:46:30.256Z,101542.47
2023-03-16T18:48:59.980Z,101545.41
2023-03-16T18:51:27.810Z,101534.94
2023-03-16T18:53:55.306Z,101539.75
2023-03-16T18:56:24.997Z,101536.03
2023-03-16T18:58:53.490Z,101535.78
2023-03-16T19:01:26.483Z,101533.38
2023-03-16T19:03:56.786Z,101544.22
2023-03-16T19:06:30.858Z,101534.63
2023-03-16T19:09:03.945Z,101526.69
2023-03-16T19:11:31.466Z,101526.22
2023-03-16T19:13:58.874Z,101530.94
2023-03-16T19:16:27.186Z,101522.84
2023-03-16T19:18:56.040Z,101518.97
2023-03-16T19:21:23.880Z,101522.56
2023-03-16T19:23:58.096Z,101523.75
2023-03-16T19:26:25.943Z,101538.81
2023-03-16T19:28:53.496Z,101526.50
2023-03-16T19:31:23.344Z,101523.53
2023-03-16T19:33:52.471Z,101532.69
2023-03-16T19:36:24.114Z,101530.25
2023-03-16T19:38:52.461Z,101539.03
2023-03-16T19:41:26.926Z,101544.41
2023-03-16T19:43:56.437Z,101549.69
2023-03-16T19:46:24.906Z,101536.41
2023-03-16T19:48:52.538Z,101522.09
2023-03-16T19:51:21.920Z,101522.63
2023-03-16T19:53:49.546Z,101523.19
2023-03-16T19:56:20.397Z,101518.97
2023-03-16T19:58:50.653Z,101521.47
2023-03-16T20:01:20.112Z,101522.00
2023-03-16T20:03:49.315Z,101518.78
2023-03-16T20:06:19.046Z,101518.22
2023-03-16T20:08:48.650Z,101522.53
2023-03-16T20:11:19.541Z,101530.50
2023-03-16T20:13:47.726Z,101527.13
2023-03-16T20:16:18.855Z,101526.03
2023-03-16T20:18:56.598Z,101511.00
2023-03-16T20:21:24.587Z,101512.94
2023-03-16T20:23:54.504Z,101522.84
2023-03-16T20:26:24.276Z,101522.38
2023-03-16T20:28:52.766Z,101516.91
2023-03-16T20:31:22.216Z,101515.13
2023-03-16T20:33:52.018Z,101519.19
2023-03-16T20:36:20.650Z,101511.88
2023-03-16T20:38:48.512Z,101510.47
2023-03-16T20:41:23.162Z,101519.75
2023-03-16T20:43:51.631Z,101525.00
2023-03-16T20:46:23.281Z,101523.75
2023-03-16T20:48:50.815Z,101512.00
2023-03-16T20:51:18.404Z,101498.41
2023-03-16T20:53:47.585Z,101506.28
2023-03-16T20:56:18.460Z,101507.56
2023-03-16T20:58:47.871Z,101495.03
2023-03-16T21:01:18.333Z,101498.53
2023-03-16T21:03:48.315Z,101496.75
2023-03-16T21:06:22.336Z,101490.59
2023-03-16T21:08:51.161Z,101486.09
2023-03-16T21:11:24.457Z,101481.22
2023-03-16T21:13:52.165Z,101476.41
2023-03-16T21:16:20.860Z,101463.75
2023-03-16T21:18:49.103Z,101457.94
2023-03-16T21:21:17.640Z,101452.56
2023-03-16T21:23:46.080Z,101446.38
2023-03-16T21:26:16.937Z,101450.69
2023-03-16T21:28:56.548Z,101450.28
2023-03-16T21:31:25.701Z,101444.63
2023-03-16T21:33:54.740Z,101438.97
2023-03-16T21:36:26.144Z,101431.47
2023-03-16T21:38:54.485Z,101423.88
2023-03-16T21:41:22.508Z,101427.06
2023-03-16T21:43:51.713Z,101420.72
2023-03-16T21:46:21.388Z,101420.00
2023-03-16T21:48:50.783Z,101429.63
2023-03-16T21:51:19.913Z,101437.69
2023-03-16T21:53:49.645Z,101434.34
2023-03-16T21:56:19.339Z,101432.97
2023-03-16T21:58:47.873Z,101437.34
2023-03-16T22:01:24.814Z,101440.47
2023-03-16T22:03:54.067Z,101424.75
2023-03-16T22:06:22.554Z,101425.22
2023-03-16T22:08:51.199Z,101415.88
2023-03-16T22:11:21.396Z,101412.81
2023-03-16T22:13:49.407Z,101409.97
2023-03-16T22:16:19.107Z,101399.38
2023-03-16T22:18:49.802Z,101389.56
2023-03-16T22:21:27.571Z,101397.06
2023-03-16T22:23:55.723Z,101401.72
2023-03-16T22:26:24.634Z,101405.78
2023-03-16T22:28:52.592Z,101403.88
2023-03-16T22:31:21.923Z,101389.81
2023-03-16T22:33:51.107Z,101382.69
2023-03-16T22:36:21.706Z,101385.56
2023-03-16T22:38:53.696Z,101385.22
2023-03-16T22:41:21.182Z,101385.88
2023-03-16T22:43:48.676Z,101382.13
2023-03-16T22:46:20.303Z,101383.22
2023-03-16T22:48:47.954Z,101386.34
2023-03-16T22:51:24.218Z,101374.78
2023-03-16T22:53:54.047Z,101370.69
2023-03-16T22:56:21.508Z,101376.47
2023-03-16T22:58:51.872Z,101368.81
2023-03-16T23:01:20.941Z,101371.81
2023-03-16T23:03:50.944Z,101355.91
2023-03-16T23:06:21.997Z,101365.97
2023-03-16T23:08:50.124Z,101371.28
2023-03-16T23:11:21.623Z,101367.78
2023-03-16T23:13:49.040Z,101371.03
2023-03-16T23:16:21.975Z,101373.09
2023-03-16T23:18:50.100Z,101362.94
2023-03-16T23:21:21.584Z,101362.13
2023-03-16T23:24:02.688Z,101353.56
2023-03-16T23:26:31.527Z,101359.47
2023-03-16T23:28:59.810Z,101357.31
2023-03-16T23:31:28.288Z,101354.88
2023-03-16T23:33:56.056Z,101353.66
2023-03-16T23:36:25.894Z,101347.69
2023-03-16T23:38:53.587Z,101351.97
2023-03-16T23:41:23.605Z,101343.38
2023-03-16T23:43:52.046Z,101336.53
2023-03-16T23:46:23.618Z,101338.88
2023-03-16T23:48:53.351Z,101341.63
2023-03-16T23:51:25.595Z,101342.22
2023-03-16T23:53:54.585Z,101344.84
2023-03-16T23:56:22.538Z,101345.09
2023-03-16T23:58:50.667Z,101350.09
